Pacific Beryl — 9V9809 — position and weather

sailwx.info

Track history (hours):
 
Tides and Currents Weather Stations Pressure Air Temp Water Temp Dewpoint Dewpoint Depression Visibility Wind Speed Wind Dir Waves Ship Positions

Pacific Beryl

Last reported at 2015-Sep-19 03:13 UTC. Time now 2016-Feb-06 13:35 UTC.
Position N 36°41' E 016°38'.
Warning: this ship's position is months out of date.

Length 182 m; draft 11 m.

Type: Tanker. MMSI: 566366000.

Date/timePositionNaut miles runAvg speedWind from/ knotsBaromVisibWave heightAir tempDewpointWater temp
2015-Sep-19 03:13N 36°41' E 016°38'913.3
2015-Sep-19 02:33N 36°45' E 016°28'1313.4
2015-Sep-19 01:33N 36°51' E 016°13'1313.1
2015-Sep-19 00:33N 36°56' E 015°58'1313.0
2015-Sep-18 23:33N 37°02' E 015°44'1313.1
2015-Sep-18 22:33N 37°07' E 015°28'15 0.5
2015-Sep-17 15:29N 37°12' E 015°12'0 0.0
2015-Sep-17 14:32N 37°12' E 015°12'0 0.0
2015-Sep-17 13:32N 37°12' E 015°12'0 0.0
2015-Sep-17 12:32N 37°12' E 015°12'0 0.0
2015-Sep-17 11:23N 37°12' E 015°12'0 0.0
2015-Sep-17 10:32N 37°12' E 015°12'0 0.0
2015-Sep-17 09:26N 37°12' E 015°12'0 0.0
2015-Sep-17 08:26N 37°12' E 015°12'0 0.0
2015-Sep-17 07:29N 37°12' E 015°12'0 0.0
2015-Sep-17 06:32N 37°12' E 015°12'1 0.1
2015-Sep-16 14:04N 37°13' E 015°13'0 0.0
2015-Sep-16 12:31N 37°13' E 015°13'0 0.0
2015-Sep-16 11:32N 37°13' E 015°13'0 0.0
2015-Sep-16 10:08N 37°13' E 015°13'0 0.0
2015-Sep-16 09:10N 37°13' E 015°13'0 0.1
2015-Sep-16 08:31N 37°13' E 015°13'3 0.3
2015-Sep-15 21:33N 37°12' E 015°16'2 1.8
2015-Sep-15 20:31N 37°12' E 015°19'6 6.4
2015-Sep-15 19:33N 37°10' E 015°26'1413.5
2015-Sep-15 18:33N 37°07' E 015°42'1414.4
2015-Sep-15 17:34N 37°04' E 016°00'1414.4
2015-Sep-15 16:33N 37°01' E 016°18'41914.9
2015-Sep-14 12:28N 35°48' E 024°51'1414.9
2015-Sep-14 11:33N 35°48' E 025°08'13014.0
2015-Sep-14 02:15N 35°17' E 027°43'25414.9
2015-Sep-13 09:15N 35°50' E 032°52'  
2015-Sep-10 11:32N 36°43' E 034°43'  
Track history (hours):
 
Tides and Currents Weather Stations Pressure Air Temp Water Temp Dewpoint Dewpoint Depression Visibility Wind Speed Wind Dir Waves Ship Positions

Pacific Beryl

Last reported at 2015-Sep-19 03:13 UTC. Time now 2016-Feb-06 13:35 UTC.
Position N 36°41' E 016°38'.
Warning: this ship's position is months out of date.

Length 182 m; draft 11 m.

Type: Tanker. MMSI: 566366000.

Date/timePositionNaut miles runAvg speedWind from/ knotsBaromVisibWave heightAir tempDewpointWater temp
2015-Sep-19 03:13N 36°41' E 016°38'913.3
2015-Sep-19 02:33N 36°45' E 016°28'1313.4
2015-Sep-19 01:33N 36°51' E 016°13'1313.1
2015-Sep-19 00:33N 36°56' E 015°58'1313.0
2015-Sep-18 23:33N 37°02' E 015°44'1313.1
2015-Sep-18 22:33N 37°07' E 015°28'15 0.5
2015-Sep-17 15:29N 37°12' E 015°12'0 0.0
2015-Sep-17 14:32N 37°12' E 015°12'0 0.0
2015-Sep-17 13:32N 37°12' E 015°12'0 0.0
2015-Sep-17 12:32N 37°12' E 015°12'0 0.0
2015-Sep-17 11:23N 37°12' E 015°12'0 0.0
2015-Sep-17 10:32N 37°12' E 015°12'0 0.0
2015-Sep-17 09:26N 37°12' E 015°12'0 0.0
2015-Sep-17 08:26N 37°12' E 015°12'0 0.0
2015-Sep-17 07:29N 37°12' E 015°12'0 0.0
2015-Sep-17 06:32N 37°12' E 015°12'1 0.1
2015-Sep-16 14:04N 37°13' E 015°13'0 0.0
2015-Sep-16 12:31N 37°13' E 015°13'0 0.0
2015-Sep-16 11:32N 37°13' E 015°13'0 0.0
2015-Sep-16 10:08N 37°13' E 015°13'0 0.0
2015-Sep-16 09:10N 37°13' E 015°13'0 0.1
2015-Sep-16 08:31N 37°13' E 015°13'3 0.3
2015-Sep-15 21:33N 37°12' E 015°16'2 1.8
2015-Sep-15 20:31N 37°12' E 015°19'6 6.4
2015-Sep-15 19:33N 37°10' E 015°26'1413.5
2015-Sep-15 18:33N 37°07' E 015°42'1414.4
2015-Sep-15 17:34N 37°04' E 016°00'1414.4
2015-Sep-15 16:33N 37°01' E 016°18'41914.9
2015-Sep-14 12:28N 35°48' E 024°51'1414.9
2015-Sep-14 11:33N 35°48' E 025°08'13014.0
2015-Sep-14 02:15N 35°17' E 027°43'25414.9
2015-Sep-13 09:15N 35°50' E 032°52'  
2015-Sep-10 11:32N 36°43' E 034°43'  

Dump ship's entire track history